sensor_id;sensor_type;location;lat;lon;timestamp;pressure;altitude;pressure_sealevel;temperature;humidity
51297;BME280;37380;45.186;9.792;2022-12-24T00:01:04;101077.56;;;7.64;100.00
51297;BME280;37380;45.186;9.792;2022-12-24T00:03:39;101046.63;;;7.20;100.00
51297;BME280;37380;45.186;9.792;2022-12-24T00:06:40;101020.63;;;7.20;100.00
51297;BME280;37380;45.186;9.792;2022-12-24T00:09:41;101066.19;;;7.46;100.00
51297;BME280;37380;45.186;9.792;2022-12-24T00:12:42;101017.13;;;7.36;100.00
51297;BME280;37380;45.186;9.792;2022-12-24T00:15:36;100971.88;;;7.48;100.00
51297;BME280;37380;45.186;9.792;2022-12-24T00:18:03;100921.78;;;7.18;100.00
51297;BME280;37380;45.186;9.792;2022-12-24T00:20:30;100794.50;;;6.51;100.00
51297;BME280;37380;45.186;9.792;2022-12-24T00:22:57;100915.00;;;6.71;100.00
51297;BME280;37380;45.186;9.792;2022-12-24T00:25:24;100976.59;;;7.07;100.00
51297;BME280;37380;45.186;9.792;2022-12-24T00:27:52;100996.97;;;7.15;100.00
51297;BME280;37380;45.186;9.792;2022-12-24T00:30:25;101046.03;;;7.58;100.00
51297;BME280;37380;45.186;9.792;2022-12-24T00:33:26;100863.94;;;6.88;100.00
51297;BME280;37380;45.186;9.792;2022-12-24T00:36:20;101010.66;;;7.62;100.00
51297;BME280;37380;45.186;9.792;2022-12-24T00:38:48;101000.66;;;7.86;100.00
51297;BME280;37380;45.186;9.792;2022-12-24T00:41:21;101003.00;;;7.81;100.00
51297;BME280;37380;45.186;9.792;2022-12-24T00:44:16;101062.34;;;7.88;100.00
51297;BME280;37380;45.186;9.792;2022-12-24T00:46:50;101044.97;;;7.71;100.00
51297;BME280;37380;45.186;9.792;2022-12-24T00:49:51;100912.16;;;6.99;100.00
51297;BME280;37380;45.186;9.792;2022-12-24T00:52:18;101038.00;;;7.37;100.00
51297;BME280;37380;45.186;9.792;2022-12-24T00:54:45;101135.09;;;7.70;100.00
51297;BME280;37380;45.186;9.792;2022-12-24T00:57:12;101147.38;;;7.73;100.00
51297;BME280;37380;45.186;9.792;2022-12-24T00:59:39;101112.44;;;7.68;100.00
51297;BME280;37380;45.186;9.792;2022-12-24T01:02:06;101111.06;;;7.75;100.00
51297;BME280;37380;45.186;9.792;2022-12-24T01:04:40;101058.66;;;7.51;100.00
51297;BME280;37380;45.186;9.792;2022-12-24T01:07:52;100986.19;;;7.08;100.00
51297;BME280;37380;45.186;9.792;2022-12-24T01:10:20;100980.03;;;7.06;100.00
51297;BME280;37380;45.186;9.792;2022-12-24T01:12:47;100969.78;;;7.09;100.00
51297;BME280;37380;45.186;9.792;2022-12-24T01:15:20;101108.97;;;8.02;100.00
51297;BME280;37380;45.186;9.792;2022-12-24T01:18:15;101123.59;;;8.00;100.00
51297;BME280;37380;45.186;9.792;2022-12-24T01:21:00;101118.91;;;7.76;100.00
51297;BME280;37380;45.186;9.792;2022-12-24T01:23:54;101028.50;;;7.05;100.00
51297;BME280;37380;45.186;9.792;2022-12-24T01:26:21;101104.28;;;7.62;100.00
51297;BME280;37380;45.186;9.792;2022-12-24T01:28:48;101000.66;;;7.02;100.00
51297;BME280;37380;45.186;9.792;2022-12-24T01:31:22;100993.59;;;7.16;100.00
51297;BME280;37380;45.186;9.792;2022-12-24T01:34:23;101140.47;;;7.90;100.00
51297;BME280;37380;45.186;9.792;2022-12-24T01:37:17;100977.75;;;7.12;100.00
51297;BME280;37380;45.186;9.792;2022-12-24T01:39:44;101063.91;;;7.68;100.00
51297;BME280;37380;45.186;9.792;2022-12-24T01:42:20;100822.41;;;6.39;100.00
51297;BME280;37380;45.186;9.792;2022-12-24T01:48:22;101056.03;;;7.67;100.00
51297;BME280;37380;45.186;9.792;2022-12-24T01:51:33;101115.81;;;8.00;100.00
51297;BME280;37380;45.186;9.792;2022-12-24T01:56:57;101044.28;;;7.24;100.00
51297;BME280;37380;45.186;9.792;2022-12-24T01:59:33;101045.00;;;7.22;100.00
51297;BME280;37380;45.186;9.792;2022-12-24T02:02:28;100852.56;;;6.21;100.00
51297;BME280;37380;45.186;9.792;2022-12-24T02:05:13;101120.72;;;7.61;100.00
51297;BME280;37380;45.186;9.792;2022-12-24T02:08:08;101060.06;;;7.78;100.00
51297;BME280;37380;45.186;9.792;2022-12-24T02:10:35;100961.69;;;7.02;100.00
51297;BME280;37380;45.186;9.792;2022-12-24T02:13:03;101050.19;;;7.71;100.00
51297;BME280;37380;45.186;9.792;2022-12-24T02:16:03;101111.09;;;7.92;100.00
51297;BME280;37380;45.186;9.792;2022-12-24T02:18:40;101114.59;;;7.93;100.00
51297;BME280;37380;45.186;9.792;2022-12-24T02:24:17;101130.31;;;7.94;100.00
51297;BME280;37380;45.186;9.792;2022-12-24T02:27:05;101116.63;;;7.99;100.00
51297;BME280;37380;45.186;9.792;2022-12-24T02:35:46;101086.22;;;7.98;100.00
51297;BME280;37380;45.186;9.792;2022-12-24T02:38:21;100995.75;;;7.41;100.00
51297;BME280;37380;45.186;9.792;2022-12-24T02:41:09;100802.22;;;6.33;100.00
51297;BME280;37380;45.186;9.792;2022-12-24T02:44:11;101015.88;;;7.62;100.00
51297;BME280;37380;45.186;9.792;2022-12-24T02:47:13;100945.94;;;7.16;100.00
51297;BME280;37380;45.186;9.792;2022-12-24T02:50:20;100897.88;;;6.91;100.00
51297;BME280;37380;45.186;9.792;2022-12-24T02:53:13;100971.00;;;7.15;100.00
51297;BME280;37380;45.186;9.792;2022-12-24T02:58:49;101109.06;;;8.03;100.00
51297;BME280;37380;45.186;9.792;2022-12-24T03:07:36;100762.25;;;5.97;100.00
51297;BME280;37380;45.186;9.792;2022-12-24T03:10:22;101096.78;;;8.01;100.00
51297;BME280;37380;45.186;9.792;2022-12-24T03:13:01;100978.00;;;7.16;100.00
51297;BME280;37380;45.186;9.792;2022-12-24T03:15:31;101098.09;;;7.76;100.00
51297;BME280;37380;45.186;9.792;2022-12-24T03:18:00;101029.06;;;7.48;100.00
51297;BME280;37380;45.186;9.792;2022-12-24T03:20:34;100919.63;;;6.61;100.00
51297;BME280;37380;45.186;9.792;2022-12-24T03:23:03;101118.09;;;7.93;100.00
51297;BME280;37380;45.186;9.792;2022-12-24T03:25:31;100948.22;;;6.93;100.00
51297;BME280;37380;45.186;9.792;2022-12-24T03:28:01;101122.50;;;7.94;100.00
51297;BME280;37380;45.186;9.792;2022-12-24T03:30:38;100922.88;;;6.73;100.00
51297;BME280;37380;45.186;9.792;2022-12-24T03:33:40;100948.19;;;7.10;100.00
51297;BME280;37380;45.186;9.792;2022-12-24T03:36:34;100957.63;;;7.08;100.00
51297;BME280;37380;45.186;9.792;2022-12-24T03:39:02;101014.78;;;7.40;100.00
51297;BME280;37380;45.186;9.792;2022-12-24T03:41:36;100877.59;;;6.68;100.00
51297;BME280;37380;45.186;9.792;2022-12-24T03:44:37;101118.91;;;8.09;100.00
51297;BME280;37380;45.186;9.792;2022-12-24T03:47:38;101032.66;;;7.51;100.00
51297;BME280;37380;45.186;9.792;2022-12-24T03:50:32;100968.81;;;7.23;100.00
51297;BME280;37380;45.186;9.792;2022-12-24T03:52:59;101116.19;;;8.07;100.00
51297;BME280;37380;45.186;9.792;2022-12-24T03:55:27;100944.47;;;7.05;100.00
51297;BME280;37380;45.186;9.792;2022-12-24T03:57:54;100966.38;;;7.26;100.00
51297;BME280;37380;45.186;9.792;2022-12-24T04:00:43;101118.91;;;8.09;100.00
51297;BME280;37380;45.186;9.792;2022-12-24T04:03:48;100760.47;;;6.12;100.00
51297;BME280;37380;45.186;9.792;2022-12-24T04:06:54;100899.47;;;6.89;100.00
51297;BME280;37380;45.186;9.792;2022-12-24T04:09:54;100772.97;;;6.20;100.00
51297;BME280;37380;45.186;9.792;2022-12-24T04:12:45;100922.38;;;7.13;100.00
51297;BME280;37380;45.186;9.792;2022-12-24T04:18:39;101088.41;;;8.06;100.00
51297;BME280;37380;45.186;9.792;2022-12-24T04:21:34;100876.63;;;6.82;100.00
51297;BME280;37380;45.186;9.792;2022-12-24T04:24:16;100706.75;;;5.79;100.00
51297;BME280;37380;45.186;9.792;2022-12-24T04:27:02;100942.75;;;6.89;100.00
51297;BME280;37380;45.186;9.792;2022-12-24T04:29:46;100982.97;;;6.95;100.00
51297;BME280;37380;45.186;9.792;2022-12-24T04:32:33;100872.75;;;6.57;100.00
51297;BME280;37380;45.186;9.792;2022-12-24T04:35:10;101077.88;;;7.70;100.00
51297;BME280;37380;45.186;9.792;2022-12-24T04:37:42;100878.88;;;6.60;100.00
51297;BME280;37380;45.186;9.792;2022-12-24T04:44:11;100881.50;;;6.76;100.00
51297;BME280;37380;45.186;9.792;2022-12-24T04:47:20;100733.38;;;5.91;100.00
51297;BME280;37380;45.186;9.792;2022-12-24T04:50:47;101098.25;;;7.96;100.00
51297;BME280;37380;45.186;9.792;2022-12-24T04:54:02;100865.19;;;6.78;100.00
51297;BME280;37380;45.186;9.792;2022-12-24T04:56:39;100905.34;;;7.01;100.00
51297;BME280;37380;45.186;9.792;2022-12-24T04:59:09;100867.53;;;6.90;100.00
51297;BME280;37380;45.186;9.792;2022-12-24T05:01:45;100880.50;;;6.90;100.00
51297;BME280;37380;45.186;9.792;2022-12-24T05:04:33;100730.06;;;6.10;100.00
51297;BME280;37380;45.186;9.792;2022-12-24T05:08:10;100760.53;;;6.30;100.00
51297;BME280;37380;45.186;9.792;2022-12-24T05:11:19;100904.53;;;7.02;100.00
51297;BME280;37380;45.186;9.792;2022-12-24T05:14:03;101126.88;;;8.12;100.00
51297;BME280;37380;45.186;9.792;2022-12-24T05:16:52;100784.63;;;6.11;100.00
51297;BME280;37380;45.186;9.792;2022-12-24T05:19:35;100828.00;;;6.30;100.00
51297;BME280;37380;45.186;9.792;2022-12-24T05:22:17;100751.16;;;6.00;100.00
51297;BME280;37380;45.186;9.792;2022-12-24T05:25:10;100750.25;;;5.99;100.00
51297;BME280;37380;45.186;9.792;2022-12-24T05:28:15;101152.91;;;7.96;100.00
51297;BME280;37380;45.186;9.792;2022-12-24T05:31:03;101062.84;;;7.32;100.00
51297;BME280;37380;45.186;9.792;2022-12-24T05:34:19;100810.81;;;5.85;100.00
51297;BME280;37380;45.186;9.792;2022-12-24T05:37:12;101077.16;;;7.40;100.00
51297;BME280;37380;45.186;9.792;2022-12-24T05:39:58;100770.53;;;6.06;100.00
51297;BME280;37380;45.186;9.792;2022-12-24T05:43:03;100852.19;;;6.29;100.00
51297;BME280;37380;45.186;9.792;2022-12-24T05:46:17;101104.22;;;7.77;100.00
51297;BME280;37380;45.186;9.792;2022-12-24T05:49:22;100871.91;;;6.58;100.00
51297;BME280;37380;45.186;9.792;2022-12-24T05:51:55;100766.22;;;6.07;100.00
51297;BME280;37380;45.186;9.792;2022-12-24T05:54:34;100905.34;;;7.01;100.00
51297;BME280;37380;45.186;9.792;2022-12-24T05:57:15;100910.78;;;6.73;100.00
51297;BME280;37380;45.186;9.792;2022-12-24T05:59:47;100897.50;;;6.84;100.00
51297;BME280;37380;45.186;9.792;2022-12-24T06:02:33;100933.19;;;7.04;100.00
51297;BME280;37380;45.186;9.792;2022-12-24T06:05:22;100768.22;;;5.96;100.00
51297;BME280;37380;45.186;9.792;2022-12-24T06:08:43;100923.50;;;6.69;100.00
51297;BME280;37380;45.186;9.792;2022-12-24T06:11:30;100957.25;;;6.69;100.00
51297;BME280;37380;45.186;9.792;2022-12-24T06:14:03;100860.47;;;6.07;100.00
51297;BME280;37380;45.186;9.792;2022-12-24T06:17:10;100958.56;;;6.61;100.00
51297;BME280;37380;45.186;9.792;2022-12-24T06:20:26;100938.75;;;6.46;100.00
51297;BME280;37380;45.186;9.792;2022-12-24T06:23:32;101097.56;;;7.49;100.00
51297;BME280;37380;45.186;9.792;2022-12-24T06:26:07;101112.25;;;7.81;100.00
51297;BME280;37380;45.186;9.792;2022-12-24T06:28:42;100910.69;;;6.55;100.00
51297;BME280;37380;45.186;9.792;2022-12-24T06:31:20;100948.38;;;7.13;100.00
51297;BME280;37380;45.186;9.792;2022-12-24T06:38:23;100746.22;;;5.89;100.00
51297;BME280;37380;45.186;9.792;2022-12-24T06:41:43;101093.41;;;7.85;100.00
51297;BME280;37380;45.186;9.792;2022-12-24T06:44:55;100929.19;;;6.62;100.00
51297;BME280;37380;45.186;9.792;2022-12-24T06:48:01;100940.63;;;6.65;100.00
51297;BME280;37380;45.186;9.792;2022-12-24T06:51:09;101097.00;;;7.71;100.00
51297;BME280;37380;45.186;9.792;2022-12-24T06:53:58;100921.59;;;6.81;100.00
51297;BME280;37380;45.186;9.792;2022-12-24T06:56:35;100971.09;;;7.17;100.00
51297;BME280;37380;45.186;9.792;2022-12-24T06:59:27;100909.22;;;6.77;100.00
51297;BME280;37380;45.186;9.792;2022-12-24T07:02:47;101040.25;;;7.64;100.00
51297;BME280;37380;45.186;9.792;2022-12-24T07:05:39;100734.22;;;5.75;100.00
51297;BME280;37380;45.186;9.792;2022-12-24T07:08:38;100912.47;;;6.89;100.00
51297;BME280;37380;45.186;9.792;2022-12-24T07:11:22;100921.25;;;6.75;100.00
51297;BME280;37380;45.186;9.792;2022-12-24T07:13:54;100910.13;;;6.94;100.00
51297;BME280;37380;45.186;9.792;2022-12-24T07:16:55;100750.53;;;5.89;100.00
51297;BME280;37380;45.186;9.792;2022-12-24T07:20:20;100824.31;;;5.94;100.00
51297;BME280;37380;45.186;9.792;2022-12-24T07:23:46;101175.16;;;7.90;100.00
51297;BME280;37380;45.186;9.792;2022-12-24T07:26:19;100940.84;;;6.37;100.00
51297;BME280;37380;45.186;9.792;2022-12-24T07:29:29;101088.50;;;7.10;100.00
51297;BME280;37380;45.186;9.792;2022-12-24T07:32:13;101208.69;;;7.53;100.00
51297;BME280;37380;45.186;9.792;2022-12-24T07:35:01;101069.91;;;6.71;100.00
51297;BME280;37380;45.186;9.792;2022-12-24T07:37:32;101191.72;;;7.43;100.00
51297;BME280;37380;45.186;9.792;2022-12-24T07:40:24;100967.19;;;6.28;100.00
51297;BME280;37380;45.186;9.792;2022-12-24T07:43:08;101044.81;;;6.55;100.00
51297;BME280;37380;45.186;9.792;2022-12-24T07:46:12;101203.72;;;7.41;100.00
51297;BME280;37380;45.186;9.792;2022-12-24T07:55:19;100936.53;;;6.06;100.00
51297;BME280;37380;45.186;9.792;2022-12-24T08:31:18;100963.75;;;6.29;100.00
51297;BME280;37380;45.186;9.792;2022-12-24T08:35:06;100887.34;;;5.78;100.00
51297;BME280;37380;45.186;9.792;2022-12-24T08:38:38;100999.41;;;6.48;100.00
51297;BME280;37380;45.186;9.792;2022-12-24T08:46:28;101229.47;;;8.17;100.00
51297;BME280;37380;45.186;9.792;2022-12-24T08:50:29;100897.69;;;6.39;100.00
51297;BME280;37380;45.186;9.792;2022-12-24T08:59:09;100916.22;;;6.62;100.00
51297;BME280;37380;45.186;9.792;2022-12-24T09:02:40;100998.28;;;7.23;100.00
51297;BME280;37380;45.186;9.792;2022-12-24T09:11:30;101245.34;;;8.89;100.00
51297;BME280;37380;45.186;9.792;2022-12-24T09:16:07;101223.81;;;8.75;100.00
51297;BME280;37380;45.186;9.792;2022-12-24T09:34:09;101252.59;;;9.12;100.00
51297;BME280;37380;45.186;9.792;2022-12-24T09:37:46;101254.94;;;8.90;100.00
51297;BME280;37380;45.186;9.792;2022-12-24T09:46:27;101282.38;;;8.99;100.00
51297;BME280;37380;45.186;9.792;2022-12-24T09:56:21;101067.88;;;7.78;100.00
51297;BME280;37380;45.186;9.792;2022-12-24T09:59:02;101278.13;;;9.01;100.00
51297;BME280;37380;45.186;9.792;2022-12-24T10:02:09;101150.38;;;8.31;100.00
51297;BME280;37380;45.186;9.792;2022-12-24T10:04:54;101154.81;;;8.32;100.00
51297;BME280;37380;45.186;9.792;2022-12-24T10:10:55;101292.38;;;8.74;100.00
51297;BME280;37380;45.186;9.792;2022-12-24T10:14:18;101069.38;;;7.57;100.00
51297;BME280;37380;45.186;9.792;2022-12-24T10:17:43;100955.03;;;7.08;100.00
51297;BME280;37380;45.186;9.792;2022-12-24T10:23:50;101242.31;;;9.33;100.00
51297;BME280;37380;45.186;9.792;2022-12-24T10:26:58;101283.97;;;9.32;100.00
51297;BME280;37380;45.186;9.792;2022-12-24T10:29:29;101249.50;;;9.19;100.00
51297;BME280;37380;45.186;9.792;2022-12-24T10:32:24;101292.09;;;9.38;100.00
51297;BME280;37380;45.186;9.792;2022-12-24T10:35:10;101291.94;;;9.52;100.00
51297;BME280;37380;45.186;9.792;2022-12-24T10:37:44;101243.19;;;8.98;100.00
51297;BME280;37380;45.186;9.792;2022-12-24T10:40:26;101241.66;;;9.19;100.00
51297;BME280;37380;45.186;9.792;2022-12-24T10:42:54;101280.03;;;9.40;100.00
51297;BME280;37380;45.186;9.792;2022-12-24T10:45:36;101267.50;;;9.33;100.00
51297;BME280;37380;45.186;9.792;2022-12-24T10:48:46;101304.75;;;9.48;100.00
51297;BME280;37380;45.186;9.792;2022-12-24T10:51:55;101231.53;;;9.25;100.00
51297;BME280;37380;45.186;9.792;2022-12-24T10:55:21;101265.28;;;9.40;100.00
51297;BME280;37380;45.186;9.792;2022-12-24T10:58:18;101298.25;;;9.22;100.00
51297;BME280;37380;45.186;9.792;2022-12-24T11:00:50;101288.16;;;9.28;100.00
51297;BME280;37380;45.186;9.792;2022-12-24T11:06:02;101119.66;;;8.24;100.00
51297;BME280;37380;45.186;9.792;2022-12-24T11:10:02;101174.44;;;8.78;100.00
51297;BME280;37380;45.186;9.792;2022-12-24T11:12:32;100970.00;;;7.46;100.00
51297;BME280;37380;45.186;9.792;2022-12-24T11:15:05;101278.31;;;9.22;100.00
51297;BME280;37380;45.186;9.792;2022-12-24T11:17:39;101295.75;;;9.23;100.00
51297;BME280;37380;45.186;9.792;2022-12-24T11:20:48;101198.97;;;8.81;100.00
51297;BME280;37380;45.186;9.792;2022-12-24T11:24:23;101239.66;;;9.14;100.00
51297;BME280;37380;45.186;9.792;2022-12-24T11:26:52;101323.78;;;9.45;100.00
51297;BME280;37380;45.186;9.792;2022-12-24T11:29:27;101293.44;;;9.47;100.00
51297;BME280;37380;45.186;9.792;2022-12-24T11:32:21;101226.81;;;9.00;100.00
51297;BME280;37380;45.186;9.792;2022-12-24T11:34:48;101139.94;;;8.64;100.00
51297;BME280;37380;45.186;9.792;2022-12-24T11:37:23;101066.94;;;8.28;100.00
51297;BME280;37380;45.186;9.792;2022-12-24T11:40:22;101145.88;;;8.79;100.00
51297;BME280;37380;45.186;9.792;2022-12-24T11:42:50;100893.13;;;7.33;100.00
51297;BME280;37380;45.186;9.792;2022-12-24T11:45:25;100931.56;;;7.57;100.00
51297;BME280;37380;45.186;9.792;2022-12-24T11:48:30;101018.78;;;8.20;100.00
51297;BME280;37380;45.186;9.792;2022-12-24T11:51:33;101216.91;;;9.29;100.00
51297;BME280;37380;45.186;9.792;2022-12-24T11:54:34;100932.88;;;7.48;100.00
51297;BME280;37380;45.186;9.792;2022-12-24T11:57:08;100995.59;;;7.89;100.00
51297;BME280;37380;45.186;9.792;2022-12-24T11:59:45;100925.19;;;7.68;100.00
51297;BME280;37380;45.186;9.792;2022-12-24T12:02:37;101002.16;;;8.16;100.00
51297;BME280;37380;45.186;9.792;2022-12-24T12:05:26;101255.66;;;9.57;100.00
51297;BME280;37380;45.186;9.792;2022-12-24T12:08:29;101270.25;;;9.36;100.00
51297;BME280;37380;45.186;9.792;2022-12-24T12:11:32;100917.16;;;7.29;100.00
51297;BME280;37380;45.186;9.792;2022-12-24T12:14:46;101257.50;;;9.42;100.00
51297;BME280;37380;45.186;9.792;2022-12-24T12:17:57;100954.97;;;7.57;100.00
51297;BME280;37380;45.186;9.792;2022-12-24T12:20:33;101066.56;;;8.21;100.00
51297;BME280;37380;45.186;9.792;2022-12-24T12:23:18;101262.88;;;9.45;100.00
51297;BME280;37380;45.186;9.792;2022-12-24T12:26:06;100974.91;;;7.74;100.00
51297;BME280;37380;45.186;9.792;2022-12-24T12:28:54;101296.72;;;9.61;100.00
51297;BME280;37380;45.186;9.792;2022-12-24T12:31:44;101299.09;;;9.57;100.00
51297;BME280;37380;45.186;9.792;2022-12-24T12:34:31;101299.38;;;9.45;100.00
51297;BME280;37380;45.186;9.792;2022-12-24T12:37:11;101144.53;;;8.35;100.00
51297;BME280;37380;45.186;9.792;2022-12-24T12:40:14;101003.66;;;7.43;100.00
51297;BME280;37380;45.186;9.792;2022-12-24T12:43:03;100993.00;;;7.38;100.00
51297;BME280;37380;45.186;9.792;2022-12-24T12:46:21;101293.13;;;9.59;100.00
51297;BME280;37380;45.186;9.792;2022-12-24T12:56:27;101288.50;;;9.36;100.00
51297;BME280;37380;45.186;9.792;2022-12-24T12:59:15;101250.09;;;9.14;100.00
51297;BME280;37380;45.186;9.792;2022-12-24T13:11:22;101250.44;;;9.21;100.00
51297;BME280;37380;45.186;9.792;2022-12-24T13:14:14;101197.91;;;8.96;100.00
51297;BME280;37380;45.186;9.792;2022-12-24T13:17:06;101246.34;;;9.26;100.00
51297;BME280;37380;45.186;9.792;2022-12-24T13:20:09;101284.84;;;9.68;100.00
51297;BME280;37380;45.186;9.792;2022-12-24T13:22:37;101242.47;;;9.54;100.00
51297;BME280;37380;45.186;9.792;2022-12-24T13:25:05;101191.59;;;9.26;100.00
51297;BME280;37380;45.186;9.792;2022-12-24T13:27:33;101289.84;;;9.81;100.00
51297;BME280;37380;45.186;9.792;2022-12-24T13:30:38;101291.63;;;9.64;100.00
51297;BME280;37380;45.186;9.792;2022-12-24T13:33:10;101285.66;;;9.67;100.00
51297;BME280;37380;45.186;9.792;2022-12-24T13:35:59;101285.91;;;9.53;100.00
51297;BME280;37380;45.186;9.792;2022-12-24T13:40:54;101314.16;;;9.44;100.00
51297;BME280;37380;45.186;9.792;2022-12-24T13:47:16;101311.34;;;9.40;100.00
51297;BME280;37380;45.186;9.792;2022-12-24T13:50:34;101210.16;;;8.63;100.00
51297;BME280;37380;45.186;9.792;2022-12-24T13:53:03;100931.44;;;7.21;100.00
51297;BME280;37380;45.186;9.792;2022-12-24T13:55:33;101191.66;;;8.74;100.00
51297;BME280;37380;45.186;9.792;2022-12-24T13:58:03;101194.34;;;8.76;100.00
51297;BME280;37380;45.186;9.792;2022-12-24T14:00:42;101134.19;;;8.37;100.00
51297;BME280;37380;45.186;9.792;2022-12-24T14:06:36;101313.56;;;9.50;100.00
51297;BME280;37380;45.186;9.792;2022-12-24T14:09:14;101331.66;;;9.47;100.00
51297;BME280;37380;45.186;9.792;2022-12-24T14:14:38;101119.06;;;8.12;100.00
51297;BME280;37380;45.186;9.792;2022-12-24T14:19:49;101320.84;;;9.21;100.00
51297;BME280;37380;45.186;9.792;2022-12-24T14:22:32;101339.59;;;9.14;100.00
51297;BME280;37380;45.186;9.792;2022-12-24T14:25:02;101272.00;;;8.83;100.00
51297;BME280;37380;45.186;9.792;2022-12-24T14:27:41;101338.06;;;9.01;100.00
51297;BME280;37380;45.186;9.792;2022-12-24T14:30:29;101265.44;;;8.57;100.00
51297;BME280;37380;45.186;9.792;2022-12-24T14:33:28;101355.84;;;9.09;100.00
51297;BME280;37380;45.186;9.792;2022-12-24T14:36:03;101355.00;;;9.10;100.00
51297;BME280;37380;45.186;9.792;2022-12-24T14:38:58;101289.75;;;8.74;100.00
51297;BME280;37380;45.186;9.792;2022-12-24T14:41:38;101144.78;;;7.89;100.00
51297;BME280;37380;45.186;9.792;2022-12-24T14:44:23;101341.94;;;8.92;100.00
51297;BME280;37380;45.186;9.792;2022-12-24T14:50:47;101355.94;;;8.94;100.00
51297;BME280;37380;45.186;9.792;2022-12-24T14:57:11;101342.66;;;8.89;100.00
51297;BME280;37380;45.186;9.792;2022-12-24T14:59:56;101277.75;;;8.59;100.00
51297;BME280;37380;45.186;9.792;2022-12-24T15:02:52;101270.34;;;8.51;100.00
51297;BME280;37380;45.186;9.792;2022-12-24T15:05:31;101295.56;;;8.68;100.00
51297;BME280;37380;45.186;9.792;2022-12-24T15:08:49;101248.94;;;8.56;100.00
51297;BME280;37380;45.186;9.792;2022-12-24T15:11:17;101344.22;;;8.86;100.00
51297;BME280;37380;45.186;9.792;2022-12-24T15:13:55;101250.16;;;8.30;100.00
51297;BME280;37380;45.186;9.792;2022-12-24T15:17:02;101085.28;;;7.30;100.00
51297;BME280;37380;45.186;9.792;2022-12-24T15:19:34;101181.69;;;7.99;100.00
51297;BME280;37380;45.186;9.792;2022-12-24T15:22:08;101359.63;;;8.65;100.00
51297;BME280;37380;45.186;9.792;2022-12-24T15:24:44;101346.34;;;8.60;100.00
51297;BME280;37380;45.186;9.792;2022-12-24T15:27:23;101359.44;;;8.78;100.00
51297;BME280;37380;45.186;9.792;2022-12-24T15:29:55;101354.00;;;8.57;100.00
51297;BME280;37380;45.186;9.792;2022-12-24T15:32:23;101089.91;;;6.88;100.00
51297;BME280;37380;45.186;9.792;2022-12-24T15:34:52;101398.38;;;8.75;100.00
51297;BME280;37380;45.186;9.792;2022-12-24T15:37:21;101356.31;;;8.67;100.00
51297;BME280;37380;45.186;9.792;2022-12-24T15:42:29;101387.16;;;8.76;100.00
51297;BME280;37380;45.186;9.792;2022-12-24T15:45:15;101119.38;;;7.20;100.00
51297;BME280;37380;45.186;9.792;2022-12-24T15:48:22;101383.25;;;8.68;100.00
51297;BME280;37380;45.186;9.792;2022-12-24T15:51:26;101343.16;;;8.33;100.00
51297;BME280;37380;45.186;9.792;2022-12-24T15:54:00;101297.63;;;7.93;100.00
51297;BME280;37380;45.186;9.792;2022-12-24T15:56:35;101429.72;;;8.93;100.00
51297;BME280;37380;45.186;9.792;2022-12-24T15:59:33;101425.31;;;8.92;100.00
51297;BME280;37380;45.186;9.792;2022-12-24T16:02:45;101361.91;;;8.58;100.00
51297;BME280;37380;45.186;9.792;2022-12-24T16:05:57;101378.81;;;8.67;100.00
51297;BME280;37380;45.186;9.792;2022-12-24T16:08:52;101427.03;;;8.75;100.00
51297;BME280;37380;45.186;9.792;2022-12-24T16:11:32;101260.88;;;7.87;100.00
51297;BME280;37380;45.186;9.792;2022-12-24T16:14:12;101434.69;;;8.88;100.00
51297;BME280;37380;45.186;9.792;2022-12-24T16:16:42;101268.50;;;7.84;100.00
51297;BME280;37380;45.186;9.792;2022-12-24T16:19:27;101305.19;;;8.05;100.00
51297;BME280;37380;45.186;9.792;2022-12-24T16:22:05;101336.84;;;8.13;100.00
51297;BME280;37380;45.186;9.792;2022-12-24T16:24:55;101347.66;;;8.04;100.00
51297;BME280;37380;45.186;9.792;2022-12-24T16:27:23;101130.97;;;6.79;100.00
51297;BME280;37380;45.186;9.792;2022-12-24T16:29:50;101287.97;;;7.60;100.00
51297;BME280;37380;45.186;9.792;2022-12-24T16:32:33;101153.81;;;7.01;100.00
51297;BME280;37380;45.186;9.792;2022-12-24T16:35:02;101220.06;;;7.39;100.00
51297;BME280;37380;45.186;9.792;2022-12-24T16:37:30;101356.41;;;8.21;100.00
51297;BME280;37380;45.186;9.792;2022-12-24T16:39:59;101285.06;;;7.70;100.00
51297;BME280;37380;45.186;9.792;2022-12-24T16:42:26;101424.66;;;8.47;100.00
51297;BME280;37380;45.186;9.792;2022-12-24T16:45:39;101473.03;;;8.74;100.00
51297;BME280;37380;45.186;9.792;2022-12-24T16:48:50;101459.84;;;8.71;100.00
51297;BME280;37380;45.186;9.792;2022-12-24T16:51:45;101387.56;;;8.36;100.00
51297;BME280;37380;45.186;9.792;2022-12-24T16:54:49;101470.59;;;8.61;100.00
51297;BME280;37380;45.186;9.792;2022-12-24T16:57:45;101485.41;;;8.78;100.00
51297;BME280;37380;45.186;9.792;2022-12-24T17:00:23;101342.75;;;7.94;100.00
51297;BME280;37380;45.186;9.792;2022-12-24T17:03:23;101498.38;;;8.77;100.00
51297;BME280;37380;45.186;9.792;2022-12-24T17:06:25;101339.19;;;7.92;100.00
51297;BME280;37380;45.186;9.792;2022-12-24T17:09:19;101360.13;;;8.10;100.00
51297;BME280;37380;45.186;9.792;2022-12-24T17:11:47;101353.84;;;8.06;100.00
51297;BME280;37380;45.186;9.792;2022-12-24T17:14:15;101169.63;;;6.89;100.00
51297;BME280;37380;45.186;9.792;2022-12-24T17:16:47;101224.56;;;7.26;100.00
51297;BME280;37380;45.186;9.792;2022-12-24T17:19:14;101172.53;;;6.79;100.00
51297;BME280;37380;45.186;9.792;2022-12-24T17:21:44;101514.94;;;8.94;100.00
51297;BME280;37380;45.186;9.792;2022-12-24T17:24:18;101383.53;;;8.10;100.00
51297;BME280;37380;45.186;9.792;2022-12-24T17:27:14;101552.81;;;8.72;100.00
51297;BME280;37380;45.186;9.792;2022-12-24T17:29:49;101291.50;;;7.45;100.00